Time;durP1;ratioP1;P1;durP2;ratioP2;P2;SDS_P1;SDS_P2;PMS_P1;PMS_P2;Temp;Humidity;BMP_temperature;BMP_pressure;BME280_temperature;BME280_humidity;BME280_pressure;Samples;Min_cycle;Max_cycle;Signal;HPM_P1;HPM_P2
2023/06/09 00:00:48;;;;;;;;;;;;;;;21.14;79.58;99227.88;4482141;31;33674;-81
2023/06/09 00:03:21;;;;;;;;;;;;;;;20.92;80.91;99231.03;4478462;31;33791;-81
2023/06/09 00:05:50;;;;;;;;;;;;;;;21.13;80.08;99233.25;4479490;31;32974;-81
2023/06/09 00:08:22;;;;;;;;;;;;;;;21.04;80.05;99232.88;4487273;31;34927;-82
2023/06/09 00:10:51;;;;;;;;;;;;;;;21.02;80.52;99241.84;4483116;31;33609;-80
2023/06/09 00:13:20;;;;;;;;;;;;;;;20.97;81.67;99239.50;4481956;31;34077;-80
2023/06/09 00:15:48;;;;;;;;;;;;;;;21.06;81.59;99243.34;4478974;31;32888;-80
2023/06/09 00:18:17;;;;;;;;;;;;;;;20.82;82.90;99251.84;4480645;31;33891;-81
2023/06/09 00:20:46;;;;;;;;;;;;;;;20.64;85.22;99247.75;4487686;31;33756;-80
2023/06/09 00:23:15;;;;;;;;;;;;;;;20.57;86.09;99249.91;4482651;31;33796;-80
2023/06/09 00:25:45;;;;;;;;;;;;;;;20.70;84.97;99255.25;4483781;31;34637;-80
2023/06/09 00:28:14;;;;;;;;;;;;;;;20.93;82.57;99247.72;4479935;31;33868;-79
2023/06/09 00:30:42;;;;;;;;;;;;;;;20.96;80.29;99239.59;4484626;31;33526;-79
2023/06/09 00:33:11;;;;;;;;;;;;;;;20.72;80.61;99258.66;4482196;31;33862;-81
2023/06/09 00:35:40;;;;;;;;;;;;;;;20.71;80.88;99258.72;4477357;31;33947;-84
2023/06/09 00:38:09;;;;;;;;;;;;;;;20.70;80.36;99249.13;4479374;31;33534;-81
2023/06/09 00:40:37;;;;;;;;;;;;;;;20.78;79.21;99241.59;4477494;31;33285;-81
2023/06/09 00:43:07;;;;;;;;;;;;;;;20.90;76.41;99222.38;4481268;31;33758;-79
2023/06/09 00:45:36;;;;;;;;;;;;;;;20.24;77.75;99215.87;4488753;31;34323;-80
2023/06/09 00:48:07;;;;;;;;;;;;;;;20.04;78.59;99222.34;4490581;31;32937;-81
2023/06/09 00:50:38;;;;;;;;;;;;;;;20.04;80.43;99220.56;4481091;31;32909;-81
2023/06/09 00:53:09;;;;;;;;;;;;;;;20.09;80.46;99224.72;4496312;31;34191;-80
2023/06/09 00:55:39;;;;;;;;;;;;;;;20.12;79.18;99216.63;4490802;31;35152;-81
2023/06/09 00:58:09;;;;;;;;;;;;;;;20.22;78.82;99216.00;4476215;31;34295;-81
2023/06/09 01:00:39;;;;;;;;;;;;;;;19.97;80.60;99219.22;4475214;31;33411;-81
2023/06/09 01:03:09;;;;;;;;;;;;;;;20.00;79.12;99207.66;4475438;31;33853;-81
2023/06/09 01:05:44;;;;;;;;;;;;;;;19.98;80.46;99202.50;4488254;31;34528;-81
2023/06/09 01:08:15;;;;;;;;;;;;;;;19.79;80.89;99197.47;4475621;31;34207;-81
2023/06/09 01:10:45;;;;;;;;;;;;;;;19.58;82.16;99190.81;4476707;31;33015;-82
2023/06/09 01:13:18;;;;;;;;;;;;;;;19.75;81.24;99184.59;4481469;31;33650;-80
2023/06/09 01:15:48;;;;;;;;;;;;;;;19.70;81.42;99181.38;4496291;31;34209;-81
2023/06/09 01:18:17;;;;;;;;;;;;;;;19.67;82.10;99171.84;4478770;31;35040;-81
2023/06/09 01:20:50;;;;;;;;;;;;;;;19.86;81.08;99160.25;4475370;31;32911;-81
2023/06/09 01:23:21;;;;;;;;;;;;;;;19.86;81.38;99153.22;4490831;31;33795;-81
2023/06/09 01:25:52;;;;;;;;;;;;;;;19.88;81.34;99158.38;4474993;31;34841;-81
2023/06/09 01:28:21;;;;;;;;;;;;;;;19.91;81.62;99159.06;4495165;31;33319;-81
2023/06/09 01:30:51;;;;;;;;;;;;;;;19.99;81.69;99150.69;4476809;31;33238;-81
2023/06/09 01:33:21;;;;;;;;;;;;;;;20.18;81.38;99153.91;4487210;31;34682;-82
2023/06/09 01:35:49;;;;;;;;;;;;;;;20.27;81.04;99160.38;4480538;31;33721;-82
2023/06/09 01:38:18;;;;;;;;;;;;;;;20.21;80.76;99161.59;4482706;31;34280;-81
2023/06/09 01:40:47;;;;;;;;;;;;;;;20.36;80.85;99165.06;4479474;31;34022;-81
2023/06/09 01:43:18;;;;;;;;;;;;;;;20.35;80.11;99160.75;4489516;31;34271;-80
2023/06/09 01:45:47;;;;;;;;;;;;;;;20.48;79.96;99160.84;4490468;31;34122;-82
2023/06/09 01:48:21;;;;;;;;;;;;;;;20.34;80.51;99166.94;4474598;31;34252;-82
2023/06/09 01:50:52;;;;;;;;;;;;;;;20.54;78.63;99155.19;4484301;31;33092;-81
2023/06/09 01:53:22;;;;;;;;;;;;;;;20.46;78.20;99165.34;4492401;31;34832;-82
2023/06/09 01:55:51;;;;;;;;;;;;;;;20.34;79.35;99161.69;4492432;31;34345;-81
2023/06/09 01:58:23;;;;;;;;;;;;;;;20.51;78.09;99157.16;4490461;31;33531;-81
2023/06/09 02:00:52;;;;;;;;;;;;;;;20.42;77.76;99159.44;4482628;32;33900;-82
2023/06/09 02:03:21;;;;;;;;;;;;;;;20.39;77.62;99167.53;4491270;31;34352;-81
2023/06/09 02:05:50;;;;;;;;;;;;;;;20.46;77.30;99168.84;4492578;31;34846;-82
2023/06/09 02:08:19;;;;;;;;;;;;;;;20.22;78.60;99175.59;4488764;31;33929;-81
2023/06/09 02:10:47;;;;;;;;;;;;;;;20.30;77.90;99177.81;4492205;31;33030;-82
2023/06/09 02:13:17;;;;;;;;;;;;;;;20.29;78.43;99174.28;4497047;31;34121;-81
2023/06/09 02:15:48;;;;;;;;;;;;;;;20.23;78.21;99175.53;4491860;31;33899;-82
2023/06/09 02:18:20;;;;;;;;;;;;;;;20.14;78.58;99178.72;4492130;31;34451;-81
2023/06/09 02:20:50;;;;;;;;;;;;;;;20.04;79.67;99181.06;4492334;31;33392;-82
2023/06/09 02:23:19;;;;;;;;;;;;;;;20.32;78.20;99182.03;4497541;31;34355;-82
2023/06/09 02:25:48;;;;;;;;;;;;;;;20.02;79.48;99187.34;4491460;31;34828;-83
2023/06/09 02:28:16;;;;;;;;;;;;;;;20.17;78.48;99191.69;4492007;31;33801;-83
2023/06/09 02:30:45;;;;;;;;;;;;;;;20.13;78.87;99192.00;4491890;31;33844;-82
2023/06/09 02:33:19;;;;;;;;;;;;;;;20.19;79.02;99188.97;4491911;31;34142;-83
2023/06/09 02:35:48;;;;;;;;;;;;;;;20.34;78.12;99201.19;4489398;31;34616;-82
2023/06/09 02:38:17;;;;;;;;;;;;;;;20.32;77.08;99200.47;4475835;32;34015;-82
2023/06/09 02:40:47;;;;;;;;;;;;;;;20.20;77.47;99204.69;4476083;32;33596;-82
2023/06/09 02:43:16;;;;;;;;;;;;;;;20.15;78.05;99192.72;4485299;31;33923;-83
2023/06/09 02:45:46;;;;;;;;;;;;;;;20.27;77.83;99199.88;4481656;31;33509;-83
2023/06/09 02:48:16;;;;;;;;;;;;;;;20.30;78.10;99188.34;4492036;31;33866;-83
2023/06/09 02:50:46;;;;;;;;;;;;;;;20.18;78.46;99189.94;4487538;31;33848;-82
2023/06/09 02:53:15;;;;;;;;;;;;;;;20.18;78.50;99187.28;4491503;31;34848;-82
2023/06/09 02:55:44;;;;;;;;;;;;;;;20.37;77.46;99187.84;4491357;31;34228;-82
2023/06/09 02:58:17;;;;;;;;;;;;;;;20.43;76.92;99192.72;4497143;31;34177;-83
2023/06/09 03:00:47;;;;;;;;;;;;;;;20.34;77.55;99195.09;4491107;31;33262;-82
2023/06/09 03:03:18;;;;;;;;;;;;;;;20.40;77.03;99190.28;4491610;31;34286;-81
2023/06/09 03:05:49;;;;;;;;;;;;;;;20.22;78.32;99192.28;4491564;31;34615;-81
2023/06/09 03:08:18;;;;;;;;;;;;;;;20.22;78.40;99194.91;4487047;31;34519;-81
2023/06/09 03:10:47;;;;;;;;;;;;;;;20.23;78.52;99185.22;4477971;32;33877;-81
2023/06/09 03:13:16;;;;;;;;;;;;;;;20.28;78.10;99187.56;4478057;32;34643;-81
2023/06/09 03:15:45;;;;;;;;;;;;;;;20.45;77.00;99182.12;4483229;31;34229;-80
2023/06/09 03:18:14;;;;;;;;;;;;;;;20.33;77.27;99183.72;4494021;31;34323;-81
2023/06/09 03:20:45;;;;;;;;;;;;;;;20.37;77.25;99176.44;4499446;31;33501;-82
2023/06/09 03:23:14;;;;;;;;;;;;;;;20.55;76.25;99174.47;4493425;31;34028;-81
2023/06/09 03:25:43;;;;;;;;;;;;;;;20.42;75.76;99175.25;4493911;31;34290;-82
2023/06/09 03:28:12;;;;;;;;;;;;;;;20.23;77.05;99172.91;4493225;31;35072;-81
2023/06/09 03:30:41;;;;;;;;;;;;;;;20.26;77.12;99179.75;4499031;31;33501;-81
2023/06/09 03:33:11;;;;;;;;;;;;;;;20.14;78.54;99185.78;4493510;31;33356;-82
2023/06/09 03:35:40;;;;;;;;;;;;;;;20.16;78.98;99189.16;4493616;31;33855;-81
2023/06/09 03:38:10;;;;;;;;;;;;;;;20.09;78.63;99185.22;4493518;31;33455;-82
2023/06/09 03:40:39;;;;;;;;;;;;;;;20.24;78.32;99182.47;4493501;31;33565;-81
2023/06/09 03:43:10;;;;;;;;;;;;;;;20.31;77.34;99190.84;4484178;31;33611;-81
2023/06/09 03:45:39;;;;;;;;;;;;;;;20.32;77.32;99189.94;4488937;31;33965;-82
2023/06/09 03:48:10;;;;;;;;;;;;;;;20.27;77.78;99185.87;4494309;31;34807;-81
2023/06/09 03:50:40;;;;;;;;;;;;;;;20.22;78.55;99179.13;4493346;31;34072;-82
2023/06/09 03:53:10;;;;;;;;;;;;;;;20.14;78.83;99177.87;4498939;31;33732;-81
2023/06/09 03:55:39;;;;;;;;;;;;;;;20.29;78.81;99179.56;4477493;32;35698;-82
2023/06/09 03:58:10;;;;;;;;;;;;;;;20.30;78.60;99183.06;4480350;31;34780;-82
2023/06/09 04:00:39;;;;;;;;;;;;;;;20.45;77.90;99185.59;4493699;31;32903;-82
2023/06/09 04:03:08;;;;;;;;;;;;;;;20.38;78.16;99186.06;4494667;31;33725;-81
2023/06/09 04:05:37;;;;;;;;;;;;;;;20.50;78.11;99192.37;4499042;31;34535;-81
2023/06/09 04:08:06;;;;;;;;;;;;;;;20.58;77.78;99190.12;4484150;31;34228;-83
2023/06/09 04:10:38;;;;;;;;;;;;;;;20.61;77.26;99196.06;4478989;31;33057;-81
2023/06/09 04:13:08;;;;;;;;;;;;;;;20.45;77.13;99197.91;4493132;31;33607;-83
2023/06/09 04:15:37;;;;;;;;;;;;;;;20.63;75.33;99202.09;4499228;31;34727;-83
2023/06/09 04:18:06;;;;;;;;;;;;;;;20.40;76.16;99198.19;4492990;31;34833;-82
2023/06/09 04:20:38;;;;;;;;;;;;;;;20.30;76.01;99199.72;4493098;31;33402;-82
2023/06/09 04:23:08;;;;;;;;;;;;;;;19.90;77.13;99202.09;4493441;31;33884;-83
2023/06/09 04:25:40;;;;;;;;;;;;;;;19.55;79.38;99202.38;4494337;31;33974;-82
2023/06/09 04:28:10;;;;;;;;;;;;;;;19.80;78.43;99203.59;4498851;31;33665;-83
2023/06/09 04:30:40;;;;;;;;;;;;;;;19.65;80.06;99217.63;4493645;31;32774;-82
2023/06/09 04:33:09;;;;;;;;;;;;;;;19.79;80.06;99213.28;4493750;31;33742;-83
2023/06/09 04:35:41;;;;;;;;;;;;;;;19.95;79.01;99205.31;4493870;31;33758;-82
2023/06/09 04:38:10;;;;;;;;;;;;;;;19.84;79.75;99218.28;4498226;31;33663;-83
2023/06/09 04:40:40;;;;;;;;;;;;;;;19.77;79.59;99225.69;4492988;31;32758;-83
2023/06/09 04:43:09;;;;;;;;;;;;;;;19.90;79.55;99236.31;4477876;31;34069;-82
2023/06/09 04:45:41;;;;;;;;;;;;;;;19.96;80.08;99238.59;4488555;31;33671;-83
2023/06/09 04:48:12;;;;;;;;;;;;;;;20.20;77.54;99243.38;4493778;31;34765;-83
2023/06/09 04:50:44;;;;;;;;;;;;;;;20.30;77.03;99233.97;4498929;31;33449;-84
2023/06/09 04:53:15;;;;;;;;;;;;;;;20.25;77.12;99236.88;4487447;31;34163;-83
2023/06/09 04:55:45;;;;;;;;;;;;;;;20.23;77.27;99244.00;4493368;31;34206;-83
2023/06/09 04:58:15;;;;;;;;;;;;;;;20.23;78.24;99253.69;4492744;31;34187;-84
2023/06/09 05:00:44;;;;;;;;;;;;;;;20.22;78.84;99252.00;4496310;31;33445;-84
2023/06/09 05:03:17;;;;;;;;;;;;;;;20.25;79.34;99257.09;4491940;31;33334;-83
2023/06/09 05:05:47;;;;;;;;;;;;;;;20.55;78.17;99256.16;4493296;31;34718;-84
2023/06/09 05:08:16;;;;;;;;;;;;;;;20.61;78.25;99250.53;4488629;31;34114;-84
2023/06/09 05:10:47;;;;;;;;;;;;;;;20.61;78.29;99255.81;4489755;31;33914;-83
2023/06/09 05:13:16;;;;;;;;;;;;;;;20.56;78.48;99253.50;4482918;32;35036;-84
2023/06/09 05:15:45;;;;;;;;;;;;;;;20.79;77.73;99259.97;4485120;31;33664;-83
2023/06/09 05:18:19;;;;;;;;;;;;;;;20.83;77.42;99258.84;4492391;31;33852;-84
2023/06/09 05:20:48;;;;;;;;;;;;;;;20.95;77.39;99258.97;4492732;31;33382;-84
2023/06/09 05:23:17;;;;;;;;;;;;;;;21.05;76.06;99255.69;4497815;31;34153;-84
2023/06/09 05:25:47;;;;;;;;;;;;;;;21.05;75.97;99249.56;4491109;31;34911;-83
2023/06/09 05:28:16;;;;;;;;;;;;;;;21.02;76.09;99252.38;4492314;31;34678;-84
2023/06/09 05:30:45;;;;;;;;;;;;;;;21.04;76.13;99253.13;4492750;31;33771;-82
2023/06/09 05:33:14;;;;;;;;;;;;;;;21.20;74.11;99255.66;4491879;31;34250;-80
2023/06/09 05:35:45;;;;;;;;;;;;;;;21.02;75.05;99247.97;4498085;31;34912;-81
2023/06/09 05:38:14;;;;;;;;;;;;;;;21.02;74.83;99258.53;4492649;31;33153;-82
2023/06/09 05:40:42;;;;;;;;;;;;;;;21.10;74.65;99258.88;4492709;31;32652;-83
2023/06/09 05:43:13;;;;;;;;;;;;;;;21.18;74.36;99257.53;4489113;31;33753;-81
2023/06/09 05:45:42;;;;;;;;;;;;;;;21.19;73.82;99256.59;4497682;31;34126;-81
2023/06/09 05:48:10;;;;;;;;;;;;;;;20.96;75.23;99253.63;4491968;31;34206;-82
2023/06/09 05:50:40;;;;;;;;;;;;;;;21.00;75.48;99251.66;4492178;31;33129;-80
2023/06/09 05:53:08;;;;;;;;;;;;;;;20.95;75.40;99248.44;4492123;31;33940;-81
2023/06/09 05:55:38;;;;;;;;;;;;;;;20.92;75.77;99246.00;4498069;31;34761;-81
2023/06/09 05:58:07;;;;;;;;;;;;;;;20.66;78.16;99248.50;4497370;31;34353;-82
2023/06/09 06:00:37;;;;;;;;;;;;;;;21.03;76.55;99254.09;4492494;31;33200;-81
2023/06/09 06:03:08;;;;;;;;;;;;;;;21.18;75.66;99261.03;4492277;31;33188;-82
2023/06/09 06:05:36;;;;;;;;;;;;;;;21.02;76.81;99257.66;4492192;31;34209;-81
2023/06/09 06:08:06;;;;;;;;;;;;;;;21.10;76.65;99252.75;4497270;31;34642;-82
2023/06/09 06:10:34;;;;;;;;;;;;;;;21.37;74.36;99251.94;4488629;31;34162;-81
2023/06/09 06:13:04;;;;;;;;;;;;;;;21.41;72.82;99249.03;4487853;31;33975;-82
2023/06/09 06:15:33;;;;;;;;;;;;;;;21.22;74.52;99254.63;4477061;31;33342;-81
2023/06/09 06:18:03;;;;;;;;;;;;;;;21.24;75.14;99247.47;4492534;31;33956;-82
2023/06/09 06:20:31;;;;;;;;;;;;;;;21.26;75.49;99261.41;4479163;31;32756;-82
2023/06/09 06:23:01;;;;;;;;;;;;;;;21.33;75.86;99269.75;4487026;31;33953;-82
2023/06/09 06:25:30;;;;;;;;;;;;;;;21.42;76.02;99271.81;4477813;31;35003;-83
2023/06/09 06:27:59;;;;;;;;;;;;;;;21.42;75.90;99276.25;4480780;31;33516;-81
2023/06/09 06:30:29;;;;;;;;;;;;;;;21.54;75.25;99280.75;4484129;31;32948;-80
2023/06/09 06:32:58;;;;;;;;;;;;;;;21.65;74.83;99278.25;4489002;31;33475;-81
2023/06/09 06:35:29;;;;;;;;;;;;;;;21.69;73.61;99270.97;4491561;31;32917;-80
2023/06/09 06:37:57;;;;;;;;;;;;;;;21.65;74.11;99280.03;4490884;31;34815;-81
2023/06/09 06:40:26;;;;;;;;;;;;;;;21.51;75.12;99270.41;4495482;31;33190;-82
2023/06/09 06:42:55;;;;;;;;;;;;;;;21.28;77.77;99271.84;4485800;31;35175;-80
2023/06/09 06:45:26;;;;;;;;;;;;;;;20.88;80.61;99277.00;4493355;31;35032;-80
2023/06/09 06:47:54;;;;;;;;;;;;;;;20.85;82.30;99285.94;4489177;31;34561;-81
2023/06/09 06:50:24;;;;;;;;;;;;;;;20.84;82.71;99286.88;4493281;31;33051;-82
2023/06/09 06:52:56;;;;;;;;;;;;;;;20.73;82.84;99288.47;4494855;31;33450;-81
2023/06/09 06:55:25;;;;;;;;;;;;;;;20.75;82.74;99287.44;4493255;31;33118;-81
2023/06/09 06:57:58;;;;;;;;;;;;;;;20.38;85.06;99305.47;4489190;31;34662;-82
2023/06/09 07:00:27;;;;;;;;;;;;;;;20.82;82.77;99293.19;4493019;31;33416;-82
2023/06/09 07:02:57;;;;;;;;;;;;;;;20.79;82.79;99294.22;4493473;31;33442;-82
2023/06/09 07:05:27;;;;;;;;;;;;;;;20.60;83.95;99293.66;4492977;31;34349;-82
2023/06/09 07:07:59;;;;;;;;;;;;;;;20.97;82.79;99296.66;4490806;31;32723;-82
2023/06/09 07:10:28;;;;;;;;;;;;;;;20.60;83.53;99288.38;4493675;31;32756;-83
2023/06/09 07:12:57;;;;;;;;;;;;;;;21.04;82.67;99292.69;4493661;31;34769;-82
2023/06/09 07:15:26;;;;;;;;;;;;;;;20.83;83.63;99295.75;4493813;31;33961;-82
2023/06/09 07:17:55;;;;;;;;;;;;;;;21.26;82.34;99286.91;4482830;31;34085;-82
2023/06/09 07:20:24;;;;;;;;;;;;;;;21.43;81.49;99296.41;4492941;31;32981;-83
2023/06/09 07:22:53;;;;;;;;;;;;;;;21.60;80.46;99298.84;4491354;31;34097;-83
2023/06/09 07:25:23;;;;;;;;;;;;;;;21.50;80.66;99295.06;4497261;31;33994;-82
2023/06/09 07:27:52;;;;;;;;;;;;;;;21.42;80.15;99297.38;4493650;31;34376;-82
2023/06/09 07:30:21;;;;;;;;;;;;;;;21.56;80.03;99294.69;4482267;31;33862;-82
2023/06/09 07:32:50;;;;;;;;;;;;;;;21.50;80.16;99295.06;4492479;31;34196;-82
2023/06/09 07:35:19;;;;;;;;;;;;;;;21.39;79.68;99292.28;4496756;31;34321;-82
2023/06/09 07:37:48;;;;;;;;;;;;;;;20.87;80.14;99293.75;4498289;31;34187;-82
2023/06/09 07:40:17;;;;;;;;;;;;;;;21.16;79.10;99293.72;4492612;31;33738;-82
2023/06/09 07:42:49;;;;;;;;;;;;;;;21.51;77.44;99291.50;4490433;31;34424;-82
2023/06/09 07:45:19;;;;;;;;;;;;;;;21.36;78.06;99289.81;4482330;31;34355;-82
2023/06/09 07:47:47;;;;;;;;;;;;;;;21.59;77.74;99281.28;4486890;31;35011;-83
2023/06/09 07:50:17;;;;;;;;;;;;;;;21.74;76.33;99292.63;4480521;31;33710;-82
2023/06/09 07:52:46;;;;;;;;;;;;;;;21.77;73.24;99279.25;4478226;31;33971;-83
2023/06/09 07:55:15;;;;;;;;;;;;;;;21.29;75.17;99274.38;4476694;31;34372;-82
2023/06/09 07:57:45;;;;;;;;;;;;;;;21.55;73.92;99276.31;4482698;31;33884;-82
2023/06/09 08:00:16;;;;;;;;;;;;;;;21.57;73.27;99274.41;4492581;31;33210;-82
2023/06/09 08:02:45;;;;;;;;;;;;;;;21.11;75.22;99267.63;4493222;31;33456;-83
2023/06/09 08:05:18;;;;;;;;;;;;;;;21.31;72.02;99269.84;4487627;31;34183;-82
2023/06/09 08:07:47;;;;;;;;;;;;;;;20.88;75.25;99274.38;4486960;31;34707;-82
2023/06/09 08:10:15;;;;;;;;;;;;;;;21.35;73.46;99274.94;4498435;31;33630;-82
2023/06/09 08:12:44;;;;;;;;;;;;;;;21.73;72.11;99270.66;4485068;31;34956;-81
2023/06/09 08:15:17;;;;;;;;;;;;;;;21.87;71.70;99264.47;4477274;31;34599;-82
2023/06/09 08:17:46;;;;;;;;;;;;;;;21.84;71.50;99266.47;4480242;31;33593;-82
2023/06/09 08:20:15;;;;;;;;;;;;;;;22.10;70.54;99262.09;4488996;31;32730;-82
2023/06/09 08:22:43;;;;;;;;;;;;;;;22.27;69.27;99263.59;4484138;31;34626;-81
2023/06/09 08:25:12;;;;;;;;;;;;;;;22.22;69.37;99265.72;4486601;31;33776;-82
2023/06/09 08:27:41;;;;;;;;;;;;;;;22.26;68.50;99268.06;4485949;31;32641;-82
2023/06/09 08:30:10;;;;;;;;;;;;;;;22.39;67.44;99265.41;4489086;31;33141;-82
2023/06/09 08:32:41;;;;;;;;;;;;;;;22.38;66.66;99269.00;4483314;31;33935;-81
2023/06/09 08:35:10;;;;;;;;;;;;;;;22.31;68.09;99275.66;4481110;31;33887;-82
2023/06/09 08:37:39;;;;;;;;;;;;;;;22.30;69.19;99277.47;4491180;31;34380;-82
2023/06/09 08:40:09;;;;;;;;;;;;;;;22.57;68.86;99272.09;4485507;31;34072;-82
2023/06/09 08:42:39;;;;;;;;;;;;;;;22.58;69.65;99275.56;4493731;31;33996;-82
2023/06/09 08:45:09;;;;;;;;;;;;;;;22.15;73.80;99283.75;4489457;31;34695;-82
2023/06/09 08:47:40;;;;;;;;;;;;;;;22.48;72.45;99288.56;4480302;31;34597;-83
2023/06/09 08:50:10;;;;;;;;;;;;;;;22.26;73.22;99283.91;4485269;31;32494;-82
2023/06/09 08:52:39;;;;;;;;;;;;;;;22.60;71.97;99280.75;4488136;31;34481;-82
2023/06/09 08:55:12;;;;;;;;;;;;;;;22.42;72.07;99293.41;4481277;32;33897;-82
2023/06/09 08:57:41;;;;;;;;;;;;;;;22.45;72.38;99294.06;4492139;31;33524;-83
2023/06/09 09:00:11;;;;;;;;;;;;;;;22.14;74.59;99297.91;4479210;31;33481;-83
2023/06/09 09:02:43;;;;;;;;;;;;;;;22.21;74.15;99293.94;4487543;31;33077;-82
2023/06/09 09:05:11;;;;;;;;;;;;;;;22.50;73.58;99294.59;4490249;31;34099;-82
2023/06/09 09:07:41;;;;;;;;;;;;;;;22.34;72.09;99299.25;4480833;31;33826;-82
2023/06/09 09:10:10;;;;;;;;;;;;;;;22.49;71.93;99295.53;4477210;32;33027;-82
2023/06/09 09:12:45;;;;;;;;;;;;;;;22.51;72.56;99292.78;4479082;31;34384;-82
2023/06/09 09:15:14;;;;;;;;;;;;;;;22.35;73.65;99300.94;4492415;31;33788;-82
2023/06/09 09:17:44;;;;;;;;;;;;;;;22.47;72.54;99294.81;4497779;31;34421;-82
2023/06/09 09:20:14;;;;;;;;;;;;;;;22.17;73.54;99298.53;4489225;31;32620;-82
2023/06/09 09:22:44;;;;;;;;;;;;;;;22.38;73.83;99303.38;4491076;31;33494;-82
2023/06/09 09:25:20;;;;;;;;;;;;;;;21.85;74.83;99297.22;4490937;31;34031;-82
2023/06/09 09:28:02;;;;;;;;;;;;;;;22.35;72.72;99298.31;4497112;31;34214;-82
2023/06/09 09:30:41;;;;;;;;;;;;;;;21.77;76.22;99297.72;4498172;31;34087;-82
2023/06/09 09:33:11;;;;;;;;;;;;;;;22.39;72.62;99297.13;4493518;31;33872;-81
2023/06/09 09:35:40;;;;;;;;;;;;;;;21.98;73.78;99298.09;4491746;31;34213;-82
2023/06/09 09:38:12;;;;;;;;;;;;;;;22.00;72.76;99301.47;4484732;31;33889;-82
2023/06/09 09:40:43;;;;;;;;;;;;;;;21.62;72.97;99304.84;4488313;31;33139;-81
2023/06/09 09:43:12;;;;;;;;;;;;;;;21.59;72.92;99299.75;4489983;31;34651;-82
2023/06/09 09:45:42;;;;;;;;;;;;;;;21.63;74.24;99301.28;4478322;31;34641;-82
2023/06/09 09:48:13;;;;;;;;;;;;;;;21.73;74.27;99301.50;4486203;31;34972;-83
2023/06/09 09:50:43;;;;;;;;;;;;;;;21.98;73.18;99300.72;4475116;31;32571;-81
2023/06/09 09:53:12;;;;;;;;;;;;;;;21.91;73.62;99296.81;4493239;31;33572;-81
2023/06/09 09:55:43;;;;;;;;;;;;;;;21.94;72.73;99294.81;4490177;31;34256;-81
2023/06/09 09:58:13;;;;;;;;;;;;;;;21.75;73.50;99294.34;4486490;31;34233;-82
2023/06/09 10:00:42;;;;;;;;;;;;;;;21.88;73.78;99297.00;4479904;31;33207;-82
2023/06/09 10:03:14;;;;;;;;;;;;;;;21.87;74.42;99290.06;4488774;31;33998;-84
2023/06/09 10:05:45;;;;;;;;;;;;;;;22.05;72.38;99294.09;4482970;31;33801;-83
2023/06/09 10:08:16;;;;;;;;;;;;;;;22.10;71.58;99288.50;4485804;31;35251;-82
2023/06/09 10:10:45;;;;;;;;;;;;;;;22.35;71.45;99285.09;4475226;31;33587;-82
2023/06/09 10:13:13;;;;;;;;;;;;;;;22.44;70.87;99283.59;4483042;31;34552;-82
2023/06/09 10:15:43;;;;;;;;;;;;;;;22.29;70.45;99282.84;4484937;31;34029;-82
2023/06/09 10:18:13;;;;;;;;;;;;;;;22.53;68.97;99275.03;4482123;31;33936;-82
2023/06/09 10:20:42;;;;;;;;;;;;;;;22.25;71.48;99284.00;4488035;31;33096;-81
2023/06/09 10:23:11;;;;;;;;;;;;;;;22.41;70.27;99289.09;4476046;31;34208;-82
2023/06/09 10:25:40;;;;;;;;;;;;;;;22.45;70.15;99288.78;4481456;31;34114;-82
2023/06/09 10:28:09;;;;;;;;;;;;;;;21.95;71.79;99279.81;4491343;31;34036;-81
2023/06/09 10:30:38;;;;;;;;;;;;;;;22.07;71.52;99281.62;4473319;31;31737;-82
2023/06/09 10:33:09;;;;;;;;;;;;;;;22.67;69.95;99274.09;4487885;31;34363;-83
2023/06/09 10:35:40;;;;;;;;;;;;;;;22.71;69.89;99264.97;4483827;31;34113;-82
2023/06/09 10:38:21;;;;;;;;;;;;;;;22.82;69.06;99274.81;4488082;31;33071;-83
2023/06/09 10:40:51;;;;;;;;;;;;;;;22.69;69.63;99280.97;4487632;31;33811;-81
2023/06/09 10:43:30;;;;;;;;;;;;;;;22.07;70.17;99273.69;4487108;31;34661;-82
2023/06/09 10:46:02;;;;;;;;;;;;;;;22.60;69.19;99268.38;4478765;31;35231;-81
2023/06/09 10:48:45;;;;;;;;;;;;;;;22.58;69.42;99267.63;4488945;31;33392;-82
2023/06/09 10:51:33;;;;;;;;;;;;;;;22.96;68.42;99270.22;4497916;31;34165;-82
2023/06/09 10:54:18;;;;;;;;;;;;;;;22.63;68.71;99264.66;4496055;31;34109;-82
2023/06/09 10:56:52;;;;;;;;;;;;;;;22.83;69.08;99272.03;4478943;31;32855;-83
2023/06/09 10:59:40;;;;;;;;;;;;;;;23.16;67.14;99266.19;4484018;31;33941;-82
2023/06/09 11:02:25;;;;;;;;;;;;;;;23.37;66.89;99260.31;4480850;31;33173;-82
2023/06/09 11:04:53;;;;;;;;;;;;;;;23.46;64.77;99253.47;4479662;31;34905;-81
2023/06/09 11:07:24;;;;;;;;;;;;;;;23.28;65.92;99251.22;4486832;31;34052;-82
2023/06/09 11:10:11;;;;;;;;;;;;;;;22.97;67.39;99236.69;4483175;31;33679;-81
2023/06/09 11:12:45;;;;;;;;;;;;;;;23.34;67.70;99247.25;4477753;31;34109;-82
2023/06/09 11:15:15;;;;;;;;;;;;;;;23.85;64.94;99239.13;4481158;31;34199;-82
2023/06/09 11:17:44;;;;;;;;;;;;;;;23.65;63.43;99240.56;4481950;31;33842;-82
2023/06/09 11:20:17;;;;;;;;;;;;;;;23.25;65.56;99238.22;4483257;31;34119;-82
2023/06/09 11:23:00;;;;;;;;;;;;;;;23.92;62.44;99231.53;4486535;31;33990;-82
2023/06/09 11:25:34;;;;;;;;;;;;;;;24.02;64.12;99233.38;4488705;31;34758;-81
2023/06/09 11:28:24;;;;;;;;;;;;;;;23.59;63.72;99238.37;4487728;31;34681;-83
2023/06/09 11:31:02;;;;;;;;;;;;;;;23.73;65.18;99243.53;4478904;31;33794;-82
2023/06/09 11:33:45;;;;;;;;;;;;;;;23.86;62.77;99235.50;4488398;31;33119;-83
2023/06/09 11:36:18;;;;;;;;;;;;;;;23.55;64.18;99244.84;4485144;31;33688;-83
2023/06/09 11:38:47;;;;;;;;;;;;;;;24.06;62.47;99240.09;4479612;31;33938;-82
2023/06/09 11:41:21;;;;;;;;;;;;;;;24.43;60.56;99232.00;4482943;31;34858;-82
2023/06/09 11:43:52;;;;;;;;;;;;;;;23.94;64.04;99234.91;4482315;31;34076;-82
2023/06/09 11:46:21;;;;;;;;;;;;;;;23.82;64.16;99234.91;4481804;31;33347;-83
2023/06/09 11:48:59;;;;;;;;;;;;;;;23.37;63.97;99232.03;4475497;31;32673;-83
2023/06/09 11:51:28;;;;;;;;;;;;;;;23.54;65.21;99229.94;4484879;31;33955;-82
2023/06/09 11:53:57;;;;;;;;;;;;;;;23.91;61.58;99232.50;4483934;31;33230;-83
2023/06/09 11:56:25;;;;;;;;;;;;;;;23.90;62.14;99231.66;4478442;31;34946;-83
2023/06/09 11:58:56;;;;;;;;;;;;;;;23.76;63.59;99238.00;4481770;31;34739;-82
2023/06/09 12:01:31;;;;;;;;;;;;;;;24.34;61.92;99230.06;4483835;31;34038;-83
2023/06/09 12:04:04;;;;;;;;;;;;;;;24.04;62.98;99239.41;4480453;31;33455;-83
2023/06/09 12:06:36;;;;;;;;;;;;;;;23.85;62.64;99237.31;4487020;31;34269;-82
2023/06/09 12:09:17;;;;;;;;;;;;;;;24.05;61.74;99238.44;4483617;31;34145;-84
2023/06/09 12:11:50;;;;;;;;;;;;;;;24.35;60.36;99236.19;4494022;31;34701;-82
2023/06/09 12:14:21;;;;;;;;;;;;;;;24.62;60.21;99236.72;4492322;31;32254;-83
2023/06/09 12:16:50;;;;;;;;;;;;;;;24.13;62.71;99237.84;4479474;31;33977;-83
2023/06/09 12:19:21;;;;;;;;;;;;;;;24.27;59.18;99234.97;4480051;31;33762;-83
2023/06/09 12:21:50;;;;;;;;;;;;;;;23.92;60.31;99229.75;4491867;31;34288;-82
2023/06/09 12:24:20;;;;;;;;;;;;;;;24.13;61.59;99227.25;4497317;31;32790;-82
2023/06/09 12:26:50;;;;;;;;;;;;;;;24.43;60.15;99229.34;4487543;31;33611;-82
2023/06/09 12:29:26;;;;;;;;;;;;;;;24.64;59.97;99223.34;4484347;31;34747;-83
2023/06/09 12:31:55;;;;;;;;;;;;;;;24.90;59.74;99215.97;4485040;31;34227;-82
2023/06/09 12:34:24;;;;;;;;;;;;;;;24.91;58.34;99212.31;4480948;31;33330;-84
2023/06/09 12:36:53;;;;;;;;;;;;;;;24.82;58.97;99215.75;4448909;31;1102974;-82
2023/06/09 12:39:23;;;;;;;;;;;;;;;25.27;57.63;99213.00;4485350;31;35104;-83
2023/06/09 12:41:51;;;;;;;;;;;;;;;25.43;56.13;99216.09;4484900;31;34350;-83
2023/06/09 12:44:24;;;;;;;;;;;;;;;25.07;57.24;99217.25;4481855;31;34613;-83
2023/06/09 12:46:58;;;;;;;;;;;;;;;24.39;59.36;99208.47;4489199;31;33030;-83
2023/06/09 12:49:27;;;;;;;;;;;;;;;24.49;59.40;99206.81;4488116;31;33759;-84
2023/06/09 12:51:56;;;;;;;;;;;;;;;25.17;57.85;99202.28;4481530;31;34696;-83
2023/06/09 12:54:26;;;;;;;;;;;;;;;24.95;58.41;99192.53;4489980;31;34102;-84
2023/06/09 12:56:55;;;;;;;;;;;;;;;24.90;58.46;99197.38;4492733;31;33742;-82
2023/06/09 12:59:24;;;;;;;;;;;;;;;24.67;58.74;99189.47;4490998;31;33952;-83
2023/06/09 13:01:54;;;;;;;;;;;;;;;25.48;57.15;99191.81;4479804;31;34057;-83
2023/06/09 13:04:23;;;;;;;;;;;;;;;25.80;57.27;99186.44;4482431;31;32527;-82